createdAt,value
2022-11-06T00:00:24.102Z,3.20
2022-11-06T00:02:52.754Z,3.20
2022-11-06T00:05:38.927Z,3.20
2022-11-06T00:08:08.923Z,3.20
2022-11-06T00:10:37.506Z,3.10
2022-11-06T00:13:06.496Z,3.10
2022-11-06T00:15:35.349Z,3.10
2022-11-06T00:18:04.106Z,3.10
2022-11-06T00:20:32.678Z,3.10
2022-11-06T00:23:01.891Z,3.20
2022-11-06T00:25:32.196Z,3.10
2022-11-06T00:28:00.856Z,3.10
2022-11-06T00:30:29.471Z,3.20
2022-11-06T00:32:58.898Z,3.20
2022-11-06T00:35:27.530Z,3.20
2022-11-06T00:37:56.310Z,3.10
2022-11-06T00:40:25.141Z,3.10
2022-11-06T00:43:07.125Z,3.20
2022-11-06T00:45:35.721Z,3.30
2022-11-06T00:48:04.406Z,3.30
2022-11-06T00:50:34.213Z,3.40
2022-11-06T00:53:02.734Z,3.30
2022-11-06T00:55:31.320Z,3.30
2022-11-06T00:58:01.265Z,3.40
2022-11-06T01:00:29.879Z,3.40
2022-11-06T01:02:58.631Z,3.50
2022-11-06T01:05:27.422Z,3.50
2022-11-06T01:07:56.061Z,3.50
2022-11-06T01:10:24.735Z,3.60
2022-11-06T01:12:53.579Z,3.60
2022-11-06T01:15:23.921Z,3.50
2022-11-06T01:17:52.541Z,3.50
2022-11-06T01:20:21.119Z,3.50
2022-11-06T01:22:49.663Z,3.50
2022-11-06T01:25:18.289Z,3.50
2022-11-06T01:27:46.924Z,3.60
2022-11-06T01:30:15.541Z,3.60
2022-11-06T01:32:45.784Z,3.70
2022-11-06T01:35:14.401Z,3.80
2022-11-06T01:37:44.138Z,3.80
2022-11-06T01:40:12.942Z,3.80
2022-11-06T01:42:41.520Z,3.70
2022-11-06T01:45:25.624Z,3.60
2022-11-06T01:47:56.281Z,3.60
2022-11-06T01:50:25.673Z,3.50
2022-11-06T01:52:54.481Z,3.50
2022-11-06T01:55:26.112Z,3.50
2022-11-06T01:57:56.350Z,3.40
2022-11-06T02:00:26.242Z,3.30
2022-11-06T02:02:57.214Z,3.30
2022-11-06T02:05:26.352Z,3.20
2022-11-06T02:07:55.877Z,3.10
2022-11-06T02:10:24.854Z,3.00
2022-11-06T02:13:00.510Z,2.90
2022-11-06T02:15:38.362Z,2.80
2022-11-06T02:18:22.847Z,2.90
2022-11-06T02:21:06.699Z,2.90
2022-11-06T02:23:48.165Z,2.90
2022-11-06T02:26:34.856Z,2.90
2022-11-06T02:29:09.237Z,2.80
2022-11-06T02:31:43.251Z,2.80
2022-11-06T02:34:14.818Z,2.80
2022-11-06T02:36:48.854Z,2.80
2022-11-06T02:39:20.202Z,2.80
2022-11-06T02:41:50.987Z,2.80
2022-11-06T02:44:25.173Z,2.70
2022-11-06T02:46:57.878Z,2.60
2022-11-06T02:49:30.635Z,2.60
2022-11-06T02:52:05.075Z,2.60
2022-11-06T02:54:37.536Z,2.50
2022-11-06T02:57:09.966Z,2.50
2022-11-06T02:59:45.551Z,2.50
2022-11-06T03:02:19.772Z,2.50
2022-11-06T03:04:53.362Z,2.50
2022-11-06T03:07:29.475Z,2.50
2022-11-06T03:09:58.877Z,2.50
2022-11-06T03:12:31.002Z,2.60
2022-11-06T03:15:11.698Z,2.60
2022-11-06T03:17:44.862Z,2.70
2022-11-06T03:20:22.628Z,2.50
2022-11-06T03:22:55.638Z,2.50
2022-11-06T03:25:28.302Z,2.50
2022-11-06T03:28:03.926Z,2.50
2022-11-06T03:30:37.911Z,2.40
2022-11-06T03:33:14.937Z,2.40
2022-11-06T03:35:48.206Z,2.50
2022-11-06T03:38:20.867Z,2.50
2022-11-06T03:40:53.653Z,2.60
2022-11-06T03:43:28.027Z,2.50
2022-11-06T03:46:02.003Z,2.50
2022-11-06T03:48:35.047Z,2.40
2022-11-06T03:51:06.608Z,2.50
2022-11-06T03:53:42.770Z,2.50
2022-11-06T03:56:17.388Z,2.50
2022-11-06T03:58:49.183Z,2.50
2022-11-06T04:01:23.884Z,2.50
2022-11-06T04:03:56.881Z,2.50
2022-11-06T04:06:30.206Z,2.50
2022-11-06T04:09:25.428Z,2.50
2022-11-06T04:12:12.212Z,2.60
2022-11-06T04:14:44.175Z,2.50
2022-11-06T04:17:16.350Z,2.60
2022-11-06T04:19:50.274Z,2.60
2022-11-06T04:22:39.065Z,2.70
2022-11-06T04:25:41.190Z,2.60
2022-11-06T04:28:20.806Z,2.60
2022-11-06T04:30:58.061Z,2.60
2022-11-06T04:33:33.796Z,2.50
2022-11-06T04:36:12.352Z,2.50
2022-11-06T04:38:47.379Z,2.40
2022-11-06T04:41:22.460Z,2.50
2022-11-06T04:43:56.043Z,2.60
2022-11-06T04:46:29.964Z,2.60
2022-11-06T04:49:01.293Z,2.60
2022-11-06T04:51:34.037Z,2.60
2022-11-06T04:54:03.792Z,2.50
2022-11-06T04:56:35.980Z,2.50
2022-11-06T04:59:06.639Z,2.50
2022-11-06T05:01:35.581Z,2.40
2022-11-06T05:04:06.338Z,2.40
2022-11-06T05:06:34.909Z,2.50
2022-11-06T05:09:03.577Z,2.40
2022-11-06T05:11:32.257Z,2.40
2022-11-06T05:14:00.915Z,2.40
2022-11-06T05:16:29.762Z,2.40
2022-11-06T05:18:58.300Z,2.50
2022-11-06T05:21:45.766Z,2.50
2022-11-06T05:24:14.427Z,2.60
2022-11-06T05:26:43.021Z,2.60
2022-11-06T05:29:13.042Z,2.50
2022-11-06T05:31:41.694Z,2.50
2022-11-06T05:34:10.454Z,2.50
2022-11-06T05:36:40.751Z,2.50
2022-11-06T05:39:09.460Z,2.50
2022-11-06T05:41:38.125Z,2.50
2022-11-06T05:44:08.057Z,2.50
2022-11-06T05:46:48.332Z,2.50
2022-11-06T05:49:18.568Z,2.50
2022-11-06T05:51:48.814Z,2.50
2022-11-06T05:54:17.600Z,2.60
2022-11-06T05:56:46.513Z,2.60
2022-11-06T05:59:15.140Z,2.50
2022-11-06T06:01:43.949Z,2.50
2022-11-06T06:04:12.662Z,2.40
2022-11-06T06:06:41.366Z,2.50
2022-11-06T06:09:11.634Z,2.40
2022-11-06T06:11:40.214Z,2.40
2022-11-06T06:14:09.042Z,2.30
2022-11-06T06:16:37.685Z,2.30
2022-11-06T06:19:06.299Z,2.30
2022-11-06T06:21:36.226Z,2.40
2022-11-06T06:24:05.469Z,2.40
2022-11-06T06:26:35.753Z,2.40
2022-11-06T06:29:04.988Z,2.40
2022-11-06T06:31:33.555Z,2.30
2022-11-06T06:34:02.141Z,2.30
2022-11-06T06:36:30.933Z,2.40
2022-11-06T06:38:59.553Z,2.40
2022-11-06T06:41:28.378Z,2.40
2022-11-06T06:43:58.588Z,2.50
2022-11-06T06:46:27.286Z,2.40
2022-11-06T06:48:56.133Z,2.60
2022-11-06T06:51:24.793Z,2.60
2022-11-06T06:53:53.386Z,2.50
2022-11-06T06:56:22.504Z,2.60
2022-11-06T06:58:55.450Z,2.70
2022-11-06T07:01:26.175Z,2.70
2022-11-06T07:03:58.621Z,2.70
2022-11-06T07:06:30.156Z,2.70
2022-11-06T07:08:58.840Z,2.80
2022-11-06T07:11:27.513Z,2.80
2022-11-06T07:13:56.126Z,2.90
2022-11-06T07:16:27.561Z,3.10
2022-11-06T07:18:56.559Z,3.20
2022-11-06T07:21:25.561Z,3.30
2022-11-06T07:23:54.157Z,3.40
2022-11-06T07:26:22.728Z,3.50
2022-11-06T07:28:51.273Z,3.50
2022-11-06T07:31:19.820Z,3.60
2022-11-06T07:33:49.641Z,3.70
2022-11-06T07:36:18.324Z,3.80
2022-11-06T07:38:46.814Z,3.90
2022-11-06T07:41:16.477Z,3.90
2022-11-06T07:43:45.016Z,3.90
2022-11-06T07:46:14.632Z,4.10
2022-11-06T07:48:43.140Z,4.20
2022-11-06T07:51:13.279Z,4.30
2022-11-06T07:53:42.338Z,4.40
2022-11-06T07:56:10.931Z,4.50
2022-11-06T07:58:40.066Z,4.50
2022-11-06T08:01:18.687Z,4.60
2022-11-06T08:03:48.013Z,4.70
2022-11-06T08:06:17.956Z,4.80
2022-11-06T08:08:46.710Z,4.90
2022-11-06T08:11:15.892Z,4.90
2022-11-06T08:13:44.523Z,5.00
2022-11-06T08:16:14.535Z,4.90
2022-11-06T08:18:43.754Z,5.00
2022-11-06T08:21:12.374Z,5.10
2022-11-06T08:23:42.371Z,5.30
2022-11-06T08:26:12.544Z,5.40
2022-11-06T08:28:41.593Z,5.50
2022-11-06T08:31:10.502Z,5.60
2022-11-06T08:33:40.169Z,5.50
2022-11-06T08:36:11.439Z,5.60
2022-11-06T08:38:40.384Z,5.70
2022-11-06T08:41:12.818Z,5.80
2022-11-06T08:43:41.604Z,5.70
2022-11-06T08:46:11.472Z,5.80
2022-11-06T08:48:40.122Z,6.00
2022-11-06T08:51:08.953Z,6.20
2022-11-06T08:53:38.072Z,6.30
2022-11-06T08:56:07.627Z,6.50
2022-11-06T08:58:37.823Z,6.70
2022-11-06T09:01:06.562Z,6.60
2022-11-06T09:03:35.212Z,6.80
2022-11-06T09:06:05.752Z,7.00
2022-11-06T09:08:34.461Z,7.00
2022-11-06T09:11:07.757Z,7.20
2022-11-06T09:13:37.834Z,7.40
2022-11-06T09:16:11.457Z,7.60
2022-11-06T09:18:44.128Z,7.80
2022-11-06T09:21:12.808Z,7.90
2022-11-06T09:23:41.541Z,8.10
2022-11-06T09:26:10.221Z,8.20
2022-11-06T09:28:40.651Z,8.30
2022-11-06T09:31:10.167Z,8.40
2022-11-06T09:33:38.909Z,8.50
2022-11-06T09:36:08.794Z,8.60
2022-11-06T09:38:37.460Z,8.70
2022-11-06T09:41:06.984Z,8.80
2022-11-06T09:44:06.154Z,8.80
2022-11-06T09:46:40.243Z,9.00
2022-11-06T09:49:19.818Z,9.30
2022-11-06T09:51:53.687Z,9.30
2022-11-06T09:54:27.258Z,9.50
2022-11-06T09:57:00.862Z,9.40
2022-11-06T09:59:36.160Z,9.60
2022-11-06T10:02:20.448Z,9.60
2022-11-06T10:04:54.283Z,9.70
2022-11-06T10:07:28.391Z,10.00
2022-11-06T10:09:58.805Z,10.10
2022-11-06T10:12:40.094Z,10.20
2022-11-06T10:15:21.663Z,10.20
2022-11-06T10:17:59.973Z,10.30
2022-11-06T10:20:32.482Z,10.40
2022-11-06T10:23:05.890Z,10.40
2022-11-06T10:25:52.429Z,10.40
2022-11-06T10:28:33.255Z,10.40
2022-11-06T10:31:12.805Z,10.50
2022-11-06T10:33:54.335Z,10.70
2022-11-06T10:36:25.961Z,10.70
2022-11-06T10:38:56.054Z,10.90
2022-11-06T10:41:28.378Z,11.00
2022-11-06T10:44:01.904Z,11.00
2022-11-06T10:46:37.843Z,11.00
2022-11-06T10:49:13.069Z,11.00
2022-11-06T10:52:03.561Z,11.10
2022-11-06T10:54:42.703Z,11.00
2022-11-06T10:57:28.087Z,11.10
2022-11-06T10:59:57.274Z,11.20
2022-11-06T11:02:32.192Z,11.30
2022-11-06T11:05:00.879Z,11.40
2022-11-06T11:07:33.140Z,11.30
2022-11-06T11:10:25.660Z,11.40
2022-11-06T11:12:56.209Z,11.40
2022-11-06T11:15:27.095Z,11.30
2022-11-06T11:18:16.626Z,11.60
2022-11-06T11:20:47.345Z,12.00
2022-11-06T11:23:18.812Z,12.50
2022-11-06T11:25:49.201Z,13.00
2022-11-06T11:28:28.727Z,13.20
2022-11-06T11:31:02.593Z,13.30
2022-11-06T11:33:32.826Z,13.20
2022-11-06T11:36:02.935Z,13.30
2022-11-06T11:38:31.684Z,13.00
2022-11-06T11:41:09.103Z,12.70
2022-11-06T11:43:37.635Z,12.60
2022-11-06T11:46:21.324Z,12.30
2022-11-06T11:48:53.179Z,12.40
2022-11-06T11:51:29.381Z,12.30
2022-11-06T11:54:02.193Z,12.20
2022-11-06T11:57:02.536Z,12.00
2022-11-06T11:59:23.941Z,12.00
2022-11-06T12:01:53.806Z,12.00
2022-11-06T12:04:28.640Z,12.00
2022-11-06T12:07:01.425Z,12.20
2022-11-06T12:09:34.044Z,12.30
2022-11-06T12:12:03.269Z,12.30
2022-11-06T12:14:35.141Z,12.30
2022-11-06T12:17:12.840Z,12.20
2022-11-06T12:19:46.364Z,12.20
2022-11-06T12:22:23.025Z,12.20
2022-11-06T12:24:56.077Z,12.20
2022-11-06T12:27:28.825Z,12.20
2022-11-06T12:30:05.415Z,12.20
2022-11-06T12:32:45.668Z,12.20
2022-11-06T12:35:25.044Z,12.20
2022-11-06T12:38:01.989Z,12.30
2022-11-06T12:40:32.122Z,12.30
2022-11-06T12:43:13.460Z,12.40
2022-11-06T12:45:53.342Z,12.30
2022-11-06T12:48:35.154Z,12.30
2022-11-06T12:51:11.565Z,12.30
2022-11-06T12:53:53.737Z,12.30
2022-11-06T12:56:32.677Z,12.20
2022-11-06T12:59:23.098Z,12.30
2022-11-06T13:01:59.706Z,12.30
2022-11-06T13:04:40.126Z,12.50
2022-11-06T13:07:41.330Z,12.40
2022-11-06T13:10:39.340Z,12.30
2022-11-06T13:13:29.138Z,12.30
2022-11-06T13:16:04.682Z,12.30
2022-11-06T13:18:39.776Z,12.30
2022-11-06T13:21:13.223Z,12.30
2022-11-06T13:23:47.997Z,12.40
2022-11-06T13:26:23.643Z,12.30
2022-11-06T13:28:57.094Z,12.30
2022-11-06T13:31:31.347Z,12.20
2022-11-06T13:34:02.388Z,12.30
2022-11-06T13:36:32.558Z,12.20
2022-11-06T13:39:11.253Z,12.20
2022-11-06T13:41:39.917Z,12.20
2022-11-06T13:44:16.060Z,12.30
2022-11-06T13:46:56.533Z,12.20
2022-11-06T13:49:33.429Z,12.00
2022-11-06T13:52:05.211Z,12.10
2022-11-06T13:55:01.707Z,12.10
2022-11-06T13:57:48.051Z,12.00
2022-11-06T14:00:22.571Z,11.90
2022-11-06T14:03:41.065Z,11.90
2022-11-06T14:06:16.012Z,12.00
2022-11-06T14:08:48.163Z,11.90
2022-11-06T14:11:21.724Z,11.80
2022-11-06T14:14:00.103Z,11.80
2022-11-06T14:16:31.639Z,11.70
2022-11-06T14:19:08.120Z,11.70
2022-11-06T14:21:48.689Z,11.60
2022-11-06T14:24:30.379Z,11.50
2022-11-06T14:27:01.853Z,11.60
2022-11-06T14:29:58.632Z,11.50
2022-11-06T14:32:49.653Z,11.30
2022-11-06T14:35:52.363Z,11.10
2022-11-06T14:38:39.623Z,11.00
2022-11-06T14:41:48.982Z,10.90
2022-11-06T14:44:27.820Z,10.90
2022-11-06T14:46:59.834Z,10.70
2022-11-06T14:49:36.635Z,10.70
2022-11-06T14:52:08.309Z,10.60
2022-11-06T14:54:40.425Z,10.60
2022-11-06T14:57:10.841Z,10.40
2022-11-06T14:59:43.102Z,10.10
2022-11-06T15:02:19.690Z,10.00
2022-11-06T15:04:54.024Z,9.90
2022-11-06T15:08:04.107Z,9.90
2022-11-06T15:10:52.142Z,9.70
2022-11-06T15:13:31.271Z,9.50
2022-11-06T15:16:06.667Z,9.30
2022-11-06T15:18:38.243Z,9.20
2022-11-06T15:21:10.773Z,9.20
2022-11-06T15:23:44.270Z,9.10
2022-11-06T15:26:24.487Z,9.00
2022-11-06T15:29:05.610Z,8.80
2022-11-06T15:31:37.760Z,8.70
2022-11-06T15:34:14.224Z,8.50
2022-11-06T15:36:49.183Z,8.20
2022-11-06T15:39:34.952Z,8.10
2022-11-06T15:42:04.249Z,8.10
2022-11-06T15:44:33.633Z,8.10
2022-11-06T15:47:05.157Z,8.10
2022-11-06T15:49:34.971Z,8.00
2022-11-06T15:52:06.026Z,7.90
2022-11-06T15:54:37.959Z,7.80
2022-11-06T15:57:17.430Z,7.70
2022-11-06T15:59:47.460Z,7.60
2022-11-06T16:02:21.225Z,7.60
2022-11-06T16:04:53.084Z,7.60
2022-11-06T16:07:23.381Z,7.50
2022-11-06T16:09:53.361Z,7.40
2022-11-06T16:12:23.372Z,7.40
2022-11-06T16:14:53.322Z,7.40
2022-11-06T16:17:27.568Z,7.40
2022-11-06T16:20:00.992Z,7.30
2022-11-06T16:22:34.623Z,7.20
2022-11-06T16:25:06.835Z,7.20
2022-11-06T16:27:39.307Z,7.20
2022-11-06T16:30:25.057Z,7.20
2022-11-06T16:32:57.356Z,7.20
2022-11-06T16:35:34.501Z,7.20
2022-11-06T16:38:40.950Z,7.10
2022-11-06T16:41:33.885Z,7.00
2022-11-06T16:44:27.870Z,6.90
2022-11-06T16:47:16.817Z,6.80
2022-11-06T16:49:53.533Z,6.70
2022-11-06T16:52:30.314Z,6.70
2022-11-06T16:55:03.728Z,6.70
2022-11-06T16:57:36.961Z,6.70
2022-11-06T17:00:09.995Z,6.60
2022-11-06T17:02:40.452Z,6.60
2022-11-06T17:05:27.512Z,6.60
2022-11-06T17:08:09.872Z,6.60
2022-11-06T17:10:41.112Z,6.60
2022-11-06T17:13:16.037Z,6.60
2022-11-06T17:15:46.716Z,6.60
2022-11-06T17:18:20.479Z,6.60
2022-11-06T17:20:53.393Z,6.60
2022-11-06T17:23:24.060Z,6.60
2022-11-06T17:25:56.651Z,6.60
2022-11-06T17:28:25.387Z,6.60
2022-11-06T17:30:55.122Z,6.60
2022-11-06T17:33:23.808Z,6.60
2022-11-06T17:35:54.088Z,6.50
2022-11-06T17:38:22.787Z,6.60
2022-11-06T17:40:51.899Z,6.50
2022-11-06T17:43:20.500Z,6.50
2022-11-06T17:45:50.072Z,6.50
2022-11-06T17:48:18.979Z,6.50
2022-11-06T17:51:05.048Z,6.50
2022-11-06T17:53:35.026Z,6.50
2022-11-06T17:56:05.008Z,6.40
2022-11-06T17:58:34.239Z,6.40
2022-11-06T18:01:07.776Z,6.30
2022-11-06T18:03:41.444Z,6.30
2022-11-06T18:06:10.987Z,6.20
2022-11-06T18:08:41.433Z,6.20
2022-11-06T18:11:10.448Z,6.20
2022-11-06T18:13:39.680Z,6.20
2022-11-06T18:16:16.543Z,6.20
2022-11-06T18:18:45.126Z,6.10
2022-11-06T18:21:13.805Z,6.10
2022-11-06T18:23:44.234Z,6.10
2022-11-06T18:26:13.528Z,6.10
2022-11-06T18:28:42.323Z,6.10
2022-11-06T18:31:10.978Z,6.10
2022-11-06T18:33:39.598Z,6.10
2022-11-06T18:36:10.502Z,6.10
2022-11-06T18:38:39.405Z,6.00
2022-11-06T18:41:10.450Z,6.00
2022-11-06T18:43:39.436Z,6.00
2022-11-06T18:46:09.954Z,5.90
2022-11-06T18:48:39.182Z,5.90
2022-11-06T18:51:08.482Z,5.80
2022-11-06T18:53:37.315Z,5.70
2022-11-06T18:56:06.667Z,5.70
2022-11-06T18:58:38.027Z,5.60
2022-11-06T19:01:07.991Z,5.60
2022-11-06T19:03:37.226Z,5.60
2022-11-06T19:06:08.823Z,5.50
2022-11-06T19:08:38.542Z,5.50
2022-11-06T19:11:08.352Z,5.50
2022-11-06T19:13:42.106Z,5.50
2022-11-06T19:16:15.063Z,5.40
2022-11-06T19:18:43.691Z,5.30
2022-11-06T19:21:13.434Z,5.20
2022-11-06T19:23:44.429Z,5.20
2022-11-06T19:26:31.878Z,5.20
2022-11-06T19:29:02.507Z,5.20
2022-11-06T19:31:33.175Z,5.10
2022-11-06T19:34:03.144Z,5.00
2022-11-06T19:36:32.665Z,5.00
2022-11-06T19:39:01.340Z,5.00
2022-11-06T19:41:30.684Z,5.00
2022-11-06T19:43:59.354Z,5.00
2022-11-06T19:46:35.209Z,4.90
2022-11-06T19:49:05.428Z,4.90
2022-11-06T19:51:34.588Z,4.90
2022-11-06T19:54:03.220Z,4.90
2022-11-06T19:56:31.834Z,4.80
2022-11-06T19:59:01.318Z,4.80
2022-11-06T20:01:34.013Z,4.80
2022-11-06T20:04:02.759Z,4.70
2022-11-06T20:06:31.259Z,4.60
2022-11-06T20:09:00.112Z,4.60
2022-11-06T20:11:28.705Z,4.60
2022-11-06T20:13:57.285Z,4.70
2022-11-06T20:16:26.504Z,4.80
2022-11-06T20:18:58.467Z,4.80
2022-11-06T20:21:29.095Z,4.80
2022-11-06T20:23:58.215Z,4.90
2022-11-06T20:26:27.137Z,4.90
2022-11-06T20:28:55.734Z,4.90
2022-11-06T20:31:24.893Z,4.90
2022-11-06T20:33:53.901Z,4.90
2022-11-06T20:36:26.088Z,4.90
2022-11-06T20:38:57.084Z,4.90
2022-11-06T20:41:26.176Z,4.80
2022-11-06T20:43:55.645Z,4.80
2022-11-06T20:46:25.327Z,4.80
2022-11-06T20:48:54.308Z,4.90
2022-11-06T20:51:27.241Z,4.90
2022-11-06T20:53:55.856Z,4.90
2022-11-06T20:56:26.217Z,4.90
2022-11-06T20:58:56.142Z,4.90
2022-11-06T21:01:27.306Z,4.90
2022-11-06T21:03:57.648Z,4.80
2022-11-06T21:06:29.903Z,4.80
2022-11-06T21:08:58.550Z,4.80
2022-11-06T21:11:28.378Z,4.80
2022-11-06T21:13:57.337Z,4.80
2022-11-06T21:16:27.909Z,4.80
2022-11-06T21:18:56.878Z,4.80
2022-11-06T21:21:29.385Z,4.70
2022-11-06T21:23:58.058Z,4.70
2022-11-06T21:26:28.545Z,4.70
2022-11-06T21:28:57.376Z,4.60
2022-11-06T21:31:28.814Z,4.50
2022-11-06T21:33:59.139Z,4.40
2022-11-06T21:36:30.870Z,4.30
2022-11-06T21:39:02.072Z,4.40
2022-11-06T21:41:34.097Z,4.40
2022-11-06T21:44:03.528Z,4.50
2022-11-06T21:46:32.132Z,4.40
2022-11-06T21:49:00.873Z,4.30
2022-11-06T21:51:33.934Z,4.30
2022-11-06T21:54:20.436Z,4.30
2022-11-06T21:56:51.037Z,4.30
2022-11-06T21:59:24.713Z,4.30
2022-11-06T22:01:53.791Z,4.40
2022-11-06T22:04:22.626Z,4.20
2022-11-06T22:06:55.082Z,4.00
2022-11-06T22:09:25.959Z,4.00
2022-11-06T22:11:54.760Z,4.00
2022-11-06T22:14:23.358Z,4.00
2022-11-06T22:16:51.971Z,4.10
2022-11-06T22:19:20.849Z,4.10
2022-11-06T22:21:49.435Z,4.20
2022-11-06T22:24:19.360Z,4.10
2022-11-06T22:26:48.039Z,4.00
2022-11-06T22:29:16.654Z,3.90
2022-11-06T22:31:45.298Z,3.80
2022-11-06T22:34:14.700Z,3.70
2022-11-06T22:36:43.650Z,3.70
2022-11-06T22:39:14.087Z,3.70
2022-11-06T22:41:44.261Z,3.70
2022-11-06T22:44:13.365Z,3.70
2022-11-06T22:46:42.147Z,3.70
2022-11-06T22:49:10.972Z,3.70
2022-11-06T22:51:40.755Z,3.70
2022-11-06T22:54:09.406Z,3.70
2022-11-06T22:56:38.001Z,3.70
2022-11-06T22:59:09.667Z,3.60
2022-11-06T23:01:42.170Z,3.60
2022-11-06T23:04:14.988Z,3.60
2022-11-06T23:06:45.192Z,3.50
2022-11-06T23:09:14.668Z,3.50
2022-11-06T23:11:46.885Z,3.60
2022-11-06T23:14:16.972Z,3.60
2022-11-06T23:17:01.566Z,3.60
2022-11-06T23:19:32.379Z,3.60
2022-11-06T23:22:18.699Z,3.60
2022-11-06T23:24:47.481Z,3.60
2022-11-06T23:27:16.288Z,3.60
2022-11-06T23:29:46.176Z,3.60
2022-11-06T23:32:14.770Z,3.60
2022-11-06T23:34:43.379Z,3.60
2022-11-06T23:37:11.993Z,3.70
2022-11-06T23:39:40.691Z,3.70
2022-11-06T23:42:09.240Z,3.80
2022-11-06T23:44:55.118Z,3.90
2022-11-06T23:47:25.197Z,3.90
2022-11-06T23:49:53.894Z,3.90
2022-11-06T23:52:22.499Z,4.00
2022-11-06T23:54:51.098Z,3.90
2022-11-06T23:57:19.959Z,3.90
2022-11-06T23:59:48.561Z,3.90
